createdAt,value
2019-04-30T00:00:34.842Z,2.91
2019-04-30T00:03:11.471Z,2.88
2019-04-30T00:05:38.203Z,2.82
2019-04-30T00:08:07.508Z,2.76
2019-04-30T00:10:41.203Z,2.68
2019-04-30T00:13:10.488Z,2.72
2019-04-30T00:15:39.322Z,2.74
2019-04-30T00:18:08.536Z,2.71
2019-04-30T00:20:38.745Z,2.73
2019-04-30T00:23:08.351Z,2.70
2019-04-30T00:25:37.669Z,2.65
2019-04-30T00:28:08.730Z,2.58
2019-04-30T00:30:39.254Z,2.56
2019-04-30T00:33:09.223Z,2.52
2019-04-30T00:35:38.623Z,2.45
2019-04-30T00:38:08.065Z,2.39
2019-04-30T00:40:37.420Z,2.33
2019-04-30T00:43:09.001Z,2.29
2019-04-30T00:45:40.062Z,2.29
2019-04-30T00:48:09.028Z,2.26
2019-04-30T00:50:38.368Z,2.27
2019-04-30T00:53:12.819Z,2.28
2019-04-30T00:55:44.382Z,2.34
2019-04-30T00:58:09.830Z,2.43
2019-04-30T01:00:48.397Z,2.46
2019-04-30T01:03:21.876Z,2.40
2019-04-30T01:05:51.186Z,2.36
2019-04-30T01:08:21.157Z,2.42
2019-04-30T01:10:51.758Z,2.60
2019-04-30T01:13:21.110Z,2.62
2019-04-30T01:15:52.483Z,2.58
2019-04-30T01:18:23.680Z,2.58
2019-04-30T01:20:52.586Z,2.60
2019-04-30T01:23:22.412Z,2.57
2019-04-30T01:25:51.813Z,2.58
2019-04-30T01:28:24.246Z,2.58
2019-04-30T01:30:53.878Z,2.55
2019-04-30T01:33:23.448Z,2.46
2019-04-30T01:35:52.798Z,2.37
2019-04-30T01:38:22.171Z,2.33
2019-04-30T01:40:51.587Z,2.27
2019-04-30T01:43:30.451Z,2.26
2019-04-30T01:45:51.985Z,2.28
2019-04-30T01:48:21.320Z,2.27
2019-04-30T01:50:50.732Z,2.18
2019-04-30T01:53:20.039Z,2.08
2019-04-30T01:55:59.079Z,2.01
2019-04-30T01:58:33.765Z,1.89
2019-04-30T02:01:06.829Z,1.77
2019-04-30T02:03:36.166Z,1.75
2019-04-30T02:06:05.592Z,1.68
2019-04-30T02:08:34.959Z,1.60
2019-04-30T02:11:04.253Z,1.53
2019-04-30T02:13:34.573Z,1.47
2019-04-30T02:16:04.045Z,1.41
2019-04-30T02:18:33.332Z,1.40
2019-04-30T02:21:02.579Z,1.41
2019-04-30T02:23:31.953Z,1.58
2019-04-30T02:26:01.298Z,1.65
2019-04-30T02:28:30.666Z,1.69
2019-04-30T02:31:00.598Z,1.73
2019-04-30T02:33:31.677Z,1.71
2019-04-30T02:36:19.848Z,1.77
2019-04-30T02:38:51.376Z,1.92
2019-04-30T02:41:21.154Z,1.99
2019-04-30T02:43:52.236Z,1.94
2019-04-30T02:46:23.158Z,1.85
2019-04-30T02:48:55.069Z,1.70
2019-04-30T02:51:29.908Z,1.63
2019-04-30T02:54:24.194Z,1.61
2019-04-30T02:56:59.634Z,1.53
2019-04-30T02:59:30.042Z,1.51
2019-04-30T03:01:59.908Z,1.44
2019-04-30T03:04:29.489Z,1.41
2019-04-30T03:06:59.817Z,1.37
2019-04-30T03:09:29.892Z,1.47
2019-04-30T03:12:00.208Z,1.61
2019-04-30T03:14:30.162Z,1.63
2019-04-30T03:17:29.395Z,1.61
2019-04-30T03:20:10.698Z,1.55
2019-04-30T03:22:40.028Z,1.52
2019-04-30T03:25:09.545Z,1.52
2019-04-30T03:27:42.230Z,1.51
2019-04-30T03:30:11.763Z,1.50
2019-04-30T03:32:42.875Z,1.49
2019-04-30T03:35:13.178Z,1.44
2019-04-30T03:37:42.619Z,1.39
2019-04-30T03:40:13.298Z,1.36
2019-04-30T03:42:42.701Z,1.39
2019-04-30T03:45:12.201Z,1.38
2019-04-30T03:47:43.221Z,1.36
2019-04-30T03:50:12.697Z,1.30
2019-04-30T03:52:41.938Z,1.31
2019-04-30T03:55:11.227Z,1.50
2019-04-30T03:57:40.707Z,1.94
2019-04-30T04:00:14.156Z,2.35
2019-04-30T04:02:45.400Z,2.77
2019-04-30T04:05:36.832Z,3.11
2019-04-30T04:08:31.201Z,3.27
2019-04-30T04:11:22.484Z,3.41
2019-04-30T04:13:51.869Z,3.54
2019-04-30T04:16:21.201Z,3.52
2019-04-30T04:18:50.494Z,3.48
2019-04-30T04:21:20.783Z,3.45
2019-04-30T04:23:50.151Z,3.48
2019-04-30T04:26:20.272Z,3.57
2019-04-30T04:28:49.941Z,3.84
2019-04-30T04:31:19.555Z,4.32
2019-04-30T04:33:52.287Z,4.79
2019-04-30T04:36:20.152Z,5.13
2019-04-30T04:38:50.661Z,5.45
2019-04-30T04:41:20.282Z,5.86
2019-04-30T04:43:50.462Z,6.29
2019-04-30T04:46:20.687Z,6.65
2019-04-30T04:48:50.158Z,7.01
2019-04-30T04:51:31.294Z,7.63
2019-04-30T04:53:50.525Z,8.25
2019-04-30T04:56:19.806Z,8.90
2019-04-30T04:58:50.162Z,9.79
2019-04-30T05:01:20.515Z,10.56
2019-04-30T05:03:49.826Z,10.68
2019-04-30T05:06:22.019Z,11.01
2019-04-30T05:08:50.379Z,11.74
2019-04-30T05:11:19.703Z,11.65
2019-04-30T05:13:49.164Z,12.12
2019-04-30T05:16:19.055Z,12.41
2019-04-30T05:18:48.889Z,12.95
2019-04-30T05:21:18.773Z,13.28
2019-04-30T05:23:49.297Z,12.81
2019-04-30T05:26:19.209Z,12.92
2019-04-30T05:28:52.470Z,12.93
2019-04-30T05:31:21.100Z,13.57
2019-04-30T05:33:50.553Z,14.27
2019-04-30T05:36:19.999Z,14.43
2019-04-30T05:38:49.259Z,13.99
2019-04-30T05:41:19.281Z,13.99
2019-04-30T05:43:49.002Z,13.16
2019-04-30T05:46:19.594Z,12.72
2019-04-30T05:48:49.517Z,13.40
2019-04-30T05:51:21.176Z,14.94
2019-04-30T05:53:50.062Z,16.24
2019-04-30T05:56:19.480Z,17.22
2019-04-30T05:58:49.474Z,17.74
2019-04-30T06:01:19.643Z,17.95
2019-04-30T06:03:49.144Z,18.69
2019-04-30T06:06:19.281Z,18.83
2019-04-30T06:09:06.234Z,19.29
2019-04-30T06:11:49.186Z,18.79
2019-04-30T06:14:46.639Z,18.46
2019-04-30T06:17:11.310Z,18.24
2019-04-30T06:19:40.725Z,18.19
2019-04-30T06:22:11.041Z,17.55
2019-04-30T06:24:40.581Z,18.16
2019-04-30T06:27:10.866Z,18.97
2019-04-30T06:29:40.599Z,18.76
2019-04-30T06:32:09.999Z,19.69
2019-04-30T06:34:41.973Z,20.59
2019-04-30T06:37:11.121Z,20.34
2019-04-30T06:39:40.570Z,20.22
2019-04-30T06:42:12.827Z,20.60
2019-04-30T06:44:41.978Z,20.71
2019-04-30T06:47:11.668Z,21.29
2019-04-30T06:49:40.958Z,21.52
2019-04-30T06:52:20.267Z,22.37
2019-04-30T06:54:41.741Z,23.20
2019-04-30T06:57:12.155Z,22.97
2019-04-30T06:59:41.517Z,22.51
2019-04-30T07:02:10.804Z,21.92
2019-04-30T07:04:40.288Z,21.68
2019-04-30T07:07:09.704Z,21.32
2019-04-30T07:10:00.569Z,20.68
2019-04-30T07:13:05.819Z,21.31
2019-04-30T07:15:35.170Z,21.62
2019-04-30T07:18:04.450Z,20.86
2019-04-30T07:20:34.158Z,21.13
2019-04-30T07:23:03.555Z,22.67
2019-04-30T07:25:32.809Z,22.14
2019-04-30T07:28:02.161Z,21.58
2019-04-30T07:30:31.787Z,20.77
2019-04-30T07:33:01.172Z,20.10
2019-04-30T07:35:30.548Z,19.56
2019-04-30T07:38:04.693Z,20.13
2019-04-30T07:40:30.819Z,20.24
2019-04-30T07:43:00.129Z,19.36
2019-04-30T07:45:32.043Z,19.23
2019-04-30T07:48:00.544Z,18.58
2019-04-30T07:50:31.270Z,18.11
2019-04-30T07:53:05.850Z,17.61
2019-04-30T07:55:32.320Z,17.46
2019-04-30T07:58:01.569Z,16.96
2019-04-30T08:00:31.341Z,16.47
2019-04-30T08:03:11.618Z,16.09
2019-04-30T08:05:43.430Z,16.06
2019-04-30T08:08:20.775Z,15.95
2019-04-30T08:10:43.925Z,16.44
2019-04-30T08:13:15.072Z,16.90
2019-04-30T08:15:44.350Z,18.41
2019-04-30T08:18:13.858Z,19.62
2019-04-30T08:20:43.096Z,19.62
2019-04-30T08:23:20.254Z,20.59
2019-04-30T08:25:43.554Z,22.01
2019-04-30T08:28:12.872Z,23.72
2019-04-30T08:30:42.171Z,24.08
2019-04-30T08:33:11.465Z,23.85
2019-04-30T08:35:40.727Z,25.18
2019-04-30T08:38:10.854Z,23.81
2019-04-30T08:40:52.841Z,23.70
2019-04-30T08:43:11.544Z,23.51
2019-04-30T08:45:41.114Z,24.00
2019-04-30T08:48:10.395Z,23.86
2019-04-30T08:50:40.655Z,24.84
2019-04-30T08:53:11.154Z,25.67
2019-04-30T08:55:40.779Z,25.99
2019-04-30T08:58:14.865Z,25.76
2019-04-30T09:00:41.132Z,26.53
2019-04-30T09:03:10.542Z,26.63
2019-04-30T09:05:58.956Z,25.58
2019-04-30T09:08:29.433Z,24.85
2019-04-30T09:10:59.537Z,24.38
2019-04-30T09:13:28.990Z,23.93
2019-04-30T09:15:59.366Z,23.97
2019-04-30T09:18:29.274Z,24.09
2019-04-30T09:21:06.070Z,24.74
2019-04-30T09:23:43.019Z,24.89
2019-04-30T09:26:00.845Z,26.23
2019-04-30T09:28:30.205Z,26.89
2019-04-30T09:30:59.445Z,26.44
2019-04-30T09:33:29.413Z,26.60
2019-04-30T09:35:59.546Z,26.63
2019-04-30T09:38:29.138Z,25.88
2019-04-30T09:40:59.395Z,25.17
2019-04-30T09:43:30.014Z,25.21
2019-04-30T09:45:59.861Z,24.78
2019-04-30T09:48:30.629Z,23.38
2019-04-30T09:51:01.064Z,23.61
2019-04-30T09:53:31.521Z,24.88
2019-04-30T09:56:00.974Z,24.57
2019-04-30T09:58:30.400Z,24.96
2019-04-30T10:00:59.890Z,25.72
2019-04-30T10:03:30.721Z,23.69
2019-04-30T10:06:00.224Z,23.20
2019-04-30T10:08:30.731Z,23.88
2019-04-30T10:11:09.855Z,24.15
2019-04-30T10:13:39.127Z,23.21
2019-04-30T10:16:29.529Z,23.52
2019-04-30T10:18:59.236Z,24.26
2019-04-30T10:21:29.804Z,23.66
2019-04-30T10:24:12.494Z,23.03
2019-04-30T10:26:30.850Z,21.74
2019-04-30T10:29:00.577Z,19.57
2019-04-30T10:31:29.862Z,19.83
2019-04-30T10:33:59.248Z,20.27
2019-04-30T10:36:29.539Z,20.04
2019-04-30T10:38:59.491Z,19.93
2019-04-30T10:41:29.120Z,19.80
2019-04-30T10:43:59.156Z,19.54
2019-04-30T10:46:28.538Z,18.13
2019-04-30T10:48:57.850Z,17.06
2019-04-30T10:51:28.835Z,15.54
2019-04-30T10:53:59.154Z,15.54
2019-04-30T10:56:29.152Z,14.94
2019-04-30T10:58:59.221Z,14.48
2019-04-30T11:01:29.190Z,14.18
2019-04-30T11:03:58.567Z,13.93
2019-04-30T11:06:27.966Z,13.78
2019-04-30T11:08:57.318Z,13.99
2019-04-30T11:11:28.285Z,13.94
2019-04-30T11:13:57.734Z,14.12
2019-04-30T11:16:27.141Z,14.36
2019-04-30T11:18:56.660Z,14.73
2019-04-30T11:21:26.259Z,15.12
2019-04-30T11:23:55.911Z,15.31
2019-04-30T11:26:25.864Z,15.37
2019-04-30T11:28:55.986Z,15.57
2019-04-30T11:31:49.248Z,16.02
2019-04-30T11:34:18.658Z,16.34
2019-04-30T11:36:47.970Z,16.34
2019-04-30T11:39:19.823Z,16.36
2019-04-30T11:41:49.202Z,16.39
2019-04-30T11:44:30.243Z,16.56
2019-04-30T11:47:19.707Z,16.09
2019-04-30T11:49:49.003Z,15.59
2019-04-30T11:52:18.625Z,15.56
2019-04-30T11:54:52.013Z,15.50
2019-04-30T11:57:19.443Z,15.64
2019-04-30T11:59:49.005Z,16.07
2019-04-30T12:02:23.125Z,15.98
2019-04-30T12:04:52.564Z,15.79
2019-04-30T12:07:34.514Z,15.65
2019-04-30T12:10:19.362Z,15.43
2019-04-30T12:12:48.753Z,15.67
2019-04-30T12:15:19.233Z,15.96
2019-04-30T12:17:48.506Z,16.13
2019-04-30T12:20:19.685Z,15.92
2019-04-30T12:22:49.416Z,15.47
2019-04-30T12:25:18.838Z,15.22
2019-04-30T12:27:48.954Z,15.18
2019-04-30T12:30:20.709Z,14.92
2019-04-30T12:32:49.790Z,15.03
2019-04-30T12:35:19.283Z,15.27
2019-04-30T12:37:50.819Z,15.37
2019-04-30T12:40:28.694Z,15.17
2019-04-30T12:42:50.789Z,14.83
2019-04-30T12:45:20.085Z,14.65
2019-04-30T12:47:54.031Z,14.66
2019-04-30T12:50:29.223Z,14.80
2019-04-30T12:53:02.037Z,14.52
2019-04-30T12:55:50.282Z,14.32
2019-04-30T12:58:20.779Z,14.17
2019-04-30T13:00:50.200Z,14.41
2019-04-30T13:03:19.537Z,14.59
2019-04-30T13:05:50.647Z,14.13
2019-04-30T13:08:21.311Z,14.40
2019-04-30T13:10:51.995Z,13.92
2019-04-30T13:13:22.064Z,13.79
2019-04-30T13:15:51.771Z,13.68
2019-04-30T13:18:21.082Z,13.88
2019-04-30T13:20:50.510Z,13.91
2019-04-30T13:23:19.884Z,13.52
2019-04-30T13:25:51.639Z,13.72
2019-04-30T13:28:22.325Z,13.49
2019-04-30T13:30:51.631Z,13.25
2019-04-30T13:33:32.878Z,13.61
2019-04-30T13:36:02.180Z,13.85
2019-04-30T13:38:52.331Z,13.98
2019-04-30T13:41:51.075Z,13.83
2019-04-30T13:44:33.074Z,14.07
2019-04-30T13:47:02.447Z,14.27
2019-04-30T13:49:31.813Z,14.24
2019-04-30T13:52:01.246Z,13.97
2019-04-30T13:54:30.552Z,13.98
2019-04-30T13:56:59.885Z,13.85
2019-04-30T13:59:29.369Z,13.32
2019-04-30T14:01:58.896Z,13.24
2019-04-30T14:04:46.943Z,13.22
2019-04-30T14:07:50.245Z,13.10
2019-04-30T14:10:19.682Z,13.13
2019-04-30T14:12:53.822Z,12.96
2019-04-30T14:15:23.437Z,12.59
2019-04-30T14:17:52.745Z,12.15
2019-04-30T14:20:22.058Z,12.18
2019-04-30T14:22:51.537Z,12.00
2019-04-30T14:25:20.852Z,11.98
2019-04-30T14:27:54.494Z,12.05
2019-04-30T14:30:21.910Z,11.92
2019-04-30T14:32:51.330Z,11.98
2019-04-30T14:35:20.577Z,11.88
2019-04-30T14:37:49.896Z,11.72
2019-04-30T14:40:20.472Z,11.65
2019-04-30T14:43:02.983Z,11.77
2019-04-30T14:45:40.970Z,11.83
2019-04-30T14:48:17.885Z,11.78
2019-04-30T14:50:48.983Z,11.90
2019-04-30T14:53:30.590Z,11.93
2019-04-30T14:56:21.900Z,11.89
2019-04-30T14:59:19.347Z,11.91
2019-04-30T15:01:52.847Z,11.88
2019-04-30T15:04:22.244Z,11.60
2019-04-30T15:06:51.560Z,11.44
2019-04-30T15:09:21.092Z,11.27
2019-04-30T15:11:50.588Z,11.17
2019-04-30T15:14:19.882Z,11.21
2019-04-30T15:16:49.185Z,11.27
2019-04-30T15:19:18.701Z,11.28
2019-04-30T15:21:48.010Z,11.34
2019-04-30T15:24:30.517Z,11.29
2019-04-30T15:26:59.829Z,11.31
2019-04-30T15:29:29.209Z,11.39
2019-04-30T15:31:59.273Z,11.33
2019-04-30T15:34:29.426Z,11.16
2019-04-30T15:36:59.250Z,11.23
2019-04-30T15:39:34.835Z,11.19
2019-04-30T15:42:04.730Z,11.24
2019-04-30T15:44:40.093Z,11.30
2019-04-30T15:47:06.192Z,11.29
2019-04-30T15:49:35.646Z,11.34
2019-04-30T15:52:05.333Z,11.33
2019-04-30T15:54:34.794Z,11.29
2019-04-30T15:57:04.406Z,11.35
2019-04-30T15:59:39.483Z,11.36
2019-04-30T16:02:34.100Z,11.41
2019-04-30T16:05:12.494Z,11.48
2019-04-30T16:07:49.486Z,11.50
2019-04-30T16:10:41.478Z,11.51
2019-04-30T16:13:19.503Z,11.59
2019-04-30T16:15:49.227Z,11.61
2019-04-30T16:18:19.575Z,11.55
2019-04-30T16:20:49.844Z,11.55
2019-04-30T16:23:19.265Z,11.51
2019-04-30T16:25:48.574Z,11.45
2019-04-30T16:28:19.588Z,11.51
2019-04-30T16:30:49.039Z,11.51
2019-04-30T16:33:19.457Z,11.60
2019-04-30T16:35:51.030Z,11.61
2019-04-30T16:38:20.936Z,11.54
2019-04-30T16:40:50.350Z,11.41
2019-04-30T16:43:20.369Z,11.25
2019-04-30T16:45:49.737Z,11.18
2019-04-30T16:48:19.477Z,11.09
2019-04-30T16:50:51.226Z,11.08
2019-04-30T16:53:20.246Z,11.12
2019-04-30T16:55:50.607Z,11.08
2019-04-30T16:58:20.029Z,11.16
2019-04-30T17:00:49.441Z,11.22
2019-04-30T17:03:31.342Z,11.29
2019-04-30T17:06:06.584Z,11.29
2019-04-30T17:08:43.726Z,11.33
2019-04-30T17:11:30.709Z,11.41
2019-04-30T17:14:02.981Z,11.44
2019-04-30T17:16:32.419Z,11.46
2019-04-30T17:19:01.770Z,11.43
2019-04-30T17:21:31.204Z,11.40
2019-04-30T17:24:00.665Z,11.36
2019-04-30T17:26:29.984Z,11.37
2019-04-30T17:28:59.855Z,11.41
2019-04-30T17:31:29.471Z,11.39
2019-04-30T17:33:58.781Z,11.35
2019-04-30T17:36:29.773Z,11.30
2019-04-30T17:38:59.431Z,11.24
2019-04-30T17:41:28.748Z,11.18
2019-04-30T17:43:58.997Z,11.17
2019-04-30T17:46:28.597Z,11.13
2019-04-30T17:48:59.292Z,11.09
2019-04-30T17:51:28.655Z,11.05
2019-04-30T17:54:16.367Z,11.01
2019-04-30T17:56:46.605Z,11.01
2019-04-30T17:59:16.085Z,11.04
2019-04-30T18:01:54.160Z,11.12
2019-04-30T18:04:23.733Z,11.16
2019-04-30T18:06:53.079Z,11.19
2019-04-30T18:09:22.478Z,11.22
2019-04-30T18:11:51.731Z,11.21
2019-04-30T18:14:21.120Z,11.19
2019-04-30T18:16:50.759Z,11.17
2019-04-30T18:19:42.036Z,11.12
2019-04-30T18:22:36.628Z,11.06
2019-04-30T18:25:23.813Z,11.04
2019-04-30T18:27:59.488Z,11.01
2019-04-30T18:30:33.290Z,10.92
2019-04-30T18:33:03.295Z,10.85
2019-04-30T18:35:32.596Z,10.76
2019-04-30T18:38:01.875Z,10.66
2019-04-30T18:40:31.403Z,10.56
2019-04-30T18:43:00.667Z,10.49
2019-04-30T18:45:30.137Z,10.44
2019-04-30T18:48:01.518Z,10.46
2019-04-30T18:50:30.469Z,10.44
2019-04-30T18:53:02.329Z,10.34
2019-04-30T18:55:31.633Z,10.33
2019-04-30T18:58:01.455Z,10.29
2019-04-30T19:00:40.383Z,10.28
2019-04-30T19:03:09.718Z,10.27
2019-04-30T19:05:40.359Z,10.18
2019-04-30T19:08:19.495Z,10.06
2019-04-30T19:11:02.882Z,9.94
2019-04-30T19:13:51.190Z,9.81
2019-04-30T19:16:45.663Z,9.69
2019-04-30T19:19:20.226Z,9.58
2019-04-30T19:21:49.612Z,9.45
2019-04-30T19:24:19.777Z,9.35
2019-04-30T19:26:49.320Z,9.26
2019-04-30T19:29:18.550Z,9.19
2019-04-30T19:31:49.463Z,9.15
2019-04-30T19:34:19.073Z,9.12
2019-04-30T19:36:49.251Z,9.09
2019-04-30T19:39:20.038Z,9.07
2019-04-30T19:41:49.433Z,9.04
2019-04-30T19:44:20.633Z,8.98
2019-04-30T19:46:49.942Z,8.91
2019-04-30T19:49:19.332Z,8.86
2019-04-30T19:51:49.506Z,8.81
2019-04-30T19:54:19.884Z,8.72
2019-04-30T19:56:50.178Z,8.63
2019-04-30T19:59:19.514Z,8.57
2019-04-30T20:01:48.925Z,8.56
2019-04-30T20:04:18.637Z,8.55
2019-04-30T20:06:48.717Z,8.50
2019-04-30T20:09:19.391Z,8.46
2019-04-30T20:11:49.320Z,8.43
2019-04-30T20:14:18.809Z,8.42
2019-04-30T20:16:48.635Z,8.38
2019-04-30T20:19:18.153Z,8.38
2019-04-30T20:21:53.065Z,8.34
2019-04-30T20:24:19.077Z,8.30
2019-04-30T20:26:51.595Z,8.27
2019-04-30T20:29:20.938Z,8.25
2019-04-30T20:31:50.247Z,8.28
2019-04-30T20:34:19.604Z,8.27
2019-04-30T20:36:49.072Z,8.27
2019-04-30T20:39:31.863Z,8.25
2019-04-30T20:42:01.155Z,8.23
2019-04-30T20:44:30.799Z,8.22
2019-04-30T20:47:00.178Z,8.18
2019-04-30T20:49:29.550Z,8.19
2019-04-30T20:51:59.068Z,8.14
2019-04-30T20:54:29.109Z,8.17
2019-04-30T20:56:59.095Z,8.15
2019-04-30T20:59:29.035Z,8.11
2019-04-30T21:01:58.491Z,8.04
2019-04-30T21:04:27.903Z,7.98
2019-04-30T21:06:59.358Z,7.93
2019-04-30T21:09:28.401Z,7.87
2019-04-30T21:11:58.766Z,7.86
2019-04-30T21:14:28.139Z,7.81
2019-04-30T21:16:57.432Z,7.71
2019-04-30T21:19:26.762Z,7.60
2019-04-30T21:21:56.139Z,7.50
2019-04-30T21:24:25.456Z,7.41
2019-04-30T21:26:54.872Z,7.41
2019-04-30T21:29:24.257Z,7.44
2019-04-30T21:32:12.624Z,7.50
2019-04-30T21:35:06.818Z,7.52
2019-04-30T21:37:36.314Z,7.51
2019-04-30T21:40:06.083Z,7.46
2019-04-30T21:42:35.385Z,7.40
2019-04-30T21:45:05.195Z,7.38
2019-04-30T21:47:34.594Z,7.37
2019-04-30T21:50:04.394Z,7.33
2019-04-30T21:52:34.008Z,7.28
2019-04-30T21:55:03.680Z,7.18
2019-04-30T21:57:33.067Z,7.09
2019-04-30T22:00:02.358Z,7.03
2019-04-30T22:02:31.711Z,7.01
2019-04-30T22:05:01.061Z,6.99
2019-04-30T22:07:30.604Z,6.96
2019-04-30T22:09:59.873Z,6.91
2019-04-30T22:12:31.135Z,6.87
2019-04-30T22:15:00.336Z,6.85
2019-04-30T22:17:29.604Z,6.85
2019-04-30T22:19:59.663Z,6.81
2019-04-30T22:22:29.239Z,6.75
2019-04-30T22:24:59.682Z,6.70
2019-04-30T22:27:29.048Z,6.64
2019-04-30T22:29:58.510Z,6.65
2019-04-30T22:32:27.797Z,6.72
2019-04-30T22:35:08.267Z,6.72
2019-04-30T22:37:37.606Z,6.70
2019-04-30T22:40:09.326Z,6.63
2019-04-30T22:42:39.977Z,6.59
2019-04-30T22:45:35.942Z,6.54
2019-04-30T22:48:05.259Z,6.52
2019-04-30T22:50:34.573Z,6.47
2019-04-30T22:53:03.988Z,6.45
2019-04-30T22:55:33.560Z,6.41
2019-04-30T22:58:02.850Z,6.42
2019-04-30T23:00:39.408Z,6.40
2019-04-30T23:03:11.646Z,6.36
2019-04-30T23:05:40.971Z,6.31
2019-04-30T23:08:10.334Z,6.29
2019-04-30T23:10:39.646Z,6.23
2019-04-30T23:13:09.007Z,6.21
2019-04-30T23:15:38.321Z,6.16
2019-04-30T23:18:07.825Z,6.12
2019-04-30T23:20:37.361Z,6.06
2019-04-30T23:23:06.621Z,6.06
2019-04-30T23:25:35.948Z,6.01
2019-04-30T23:28:05.482Z,5.96
2019-04-30T23:30:34.808Z,5.91
2019-04-30T23:33:04.122Z,5.90
2019-04-30T23:35:33.424Z,5.89
2019-04-30T23:38:02.826Z,5.84
2019-04-30T23:40:48.110Z,5.79
2019-04-30T23:43:17.663Z,5.70
2019-04-30T23:45:47.033Z,5.69
2019-04-30T23:48:16.512Z,5.68
2019-04-30T23:50:45.865Z,5.62
2019-04-30T23:53:15.138Z,5.52
2019-04-30T23:55:44.446Z,5.45
2019-04-30T23:58:13.864Z,5.40
